Time;durP1;ratioP1;P1;durP2;ratioP2;P2;SDS_P1;SDS_P2;PMS_P1;PMS_P2;Temp;Humidity;BMP_temperature;BMP_pressure;BME280_temperature;BME280_humidity;BME280_pressure;Samples;Min_cycle;Max_cycle;Signal;HPM_P1;HPM_P2
2022/01/01 00:01:36;;;;;;;6.78;1.50;;;26.00;64.00;;;;;;4953975;28;20035;-69
2022/01/01 00:04:03;;;;;;;6.25;1.30;;;26.00;63.50;;;;;;4937558;29;20039;-69
2022/01/01 00:06:30;;;;;;;6.43;1.30;;;26.00;63.20;;;;;;4954040;29;20046;-69
2022/01/01 00:08:57;;;;;;;7.53;1.77;;;26.00;63.30;;;;;;4952857;29;20039;-69
2022/01/01 00:11:25;;;;;;;6.88;1.42;;;26.00;63.50;;;;;;4953980;29;20039;-69
2022/01/01 00:13:52;;;;;;;2.50;1.00;;;26.00;64.90;;;;;;4953763;29;20050;-69
2022/01/01 00:16:20;;;;;;;6.05;1.60;;;26.10;63.80;;;;;;4953721;29;20027;-69
2022/01/01 00:18:47;;;;;;;5.82;1.55;;;26.10;63.90;;;;;;4953819;29;20118;-69
2022/01/01 00:21:14;;;;;;;6.90;1.58;;;26.00;62.50;;;;;;4953529;29;20059;-69
2022/01/01 00:23:41;;;;;;;8.07;1.52;;;26.10;64.00;;;;;;4953730;29;20043;-69
2022/01/01 00:26:08;;;;;;;8.85;1.63;;;26.10;64.60;;;;;;4953944;29;20066;-69
2022/01/01 00:28:35;;;;;;;4.07;1.67;;;26.10;63.40;;;;;;4954057;29;20083;-69
2022/01/01 00:31:03;;;;;;;5.43;1.45;;;26.10;63.40;;;;;;4953824;29;20393;-69
2022/01/01 00:33:30;;;;;;;6.47;1.42;;;26.10;63.40;;;;;;4936510;29;20045;-69
2022/01/01 00:35:57;;;;;;;5.53;1.85;;;26.10;64.50;;;;;;4953503;29;20118;-69
2022/01/01 00:38:25;;;;;;;7.35;1.40;;;26.00;64.20;;;;;;4953642;29;20051;-70
2022/01/01 00:40:52;;;;;;;5.90;1.38;;;26.00;63.90;;;;;;4953671;29;20062;-69
2022/01/01 00:43:19;;;;;;;8.02;1.40;;;26.00;63.60;;;;;;4953752;29;20494;-68
2022/01/01 00:45:46;;;;;;;4.68;1.23;;;26.00;63.50;;;;;;4936440;29;20043;-69
2022/01/01 00:48:14;;;;;;;5.55;1.50;;;26.10;63.60;;;;;;4952732;28;20122;-69
2022/01/01 00:50:41;;;;;;;6.80;1.70;;;26.10;63.60;;;;;;4957155;29;20090;-68
2022/01/01 00:53:08;;;;;;;4.63;1.17;;;26.20;64.90;;;;;;4957335;29;20383;-69
2022/01/01 00:55:35;;;;;;;9.63;2.08;;;26.10;64.70;;;;;;4957609;29;20039;-69
2022/01/01 00:58:02;;;;;;;4.10;1.40;;;26.10;65.30;;;;;;4957367;29;20046;-68
2022/01/01 01:00:30;;;;;;;7.13;1.73;;;26.00;66.30;;;;;;4955977;29;20031;-68
2022/01/01 01:02:57;;;;;;;11.13;1.63;;;26.00;66.60;;;;;;4956870;28;20127;-69
2022/01/01 01:05:24;;;;;;;8.13;2.03;;;25.90;65.50;;;;;;4957587;29;20438;-68
2022/01/01 01:07:51;;;;;;;4.60;1.33;;;25.80;66.10;;;;;;4939924;29;20134;-68
2022/01/01 01:10:18;;;;;;;5.28;1.88;;;25.90;66.70;;;;;;4956702;29;20027;-69
2022/01/01 01:12:48;;;;;;;6.25;1.52;;;25.90;66.50;;;;;;4956827;29;20050;-68
2022/01/01 01:15:18;;;;;;;8.15;1.77;;;25.90;66.10;;;;;;4939946;29;20031;-68
2022/01/01 01:17:49;;;;;;;9.75;1.40;;;25.80;65.90;;;;;;4956714;29;20435;-69
2022/01/01 01:20:17;;;;;;;7.70;1.73;;;25.80;65.40;;;;;;4939471;29;20041;-68
2022/01/01 01:22:44;;;;;;;6.75;2.05;;;25.90;65.20;;;;;;4956585;29;20058;-69
2022/01/01 01:25:12;;;;;;;6.65;1.60;;;25.90;66.30;;;;;;4956861;29;20389;-68
2022/01/01 01:27:39;;;;;;;8.85;1.98;;;25.90;66.30;;;;;;4956799;29;20059;-68
2022/01/01 01:30:09;;;;;;;6.70;2.03;;;26.00;67.40;;;;;;4956463;28;20054;-68
2022/01/01 01:32:39;;;;;;;8.45;1.48;;;26.00;67.00;;;;;;4956328;29;20046;-69
2022/01/01 01:35:07;;;;;;;5.35;1.42;;;26.00;66.40;;;;;;4939527;29;20152;-68
2022/01/01 01:37:34;;;;;;;7.78;1.50;;;26.00;66.10;;;;;;4956548;29;20536;-68
2022/01/01 01:40:01;;;;;;;7.45;2.30;;;26.00;65.40;;;;;;4939308;29;20035;-68
2022/01/01 01:42:30;;;;;;;10.15;1.75;;;26.10;64.90;;;;;;4956155;29;20042;-68
2022/01/01 01:44:57;;;;;;;15.15;2.08;;;26.10;66.50;;;;;;4956265;29;20477;-68
2022/01/01 01:47:37;;;;;;;9.40;1.45;;;26.20;65.80;;;;;;4956112;29;20206;-68
2022/01/01 01:50:05;;;;;;;;;;;26.20;66.60;;;;;;4956474;29;20544;-69
2022/01/01 01:52:35;;;;;;;6.20;1.73;;;26.10;65.90;;;;;;4938826;29;19918;-68
2022/01/01 01:55:04;;;;;;;10.30;2.95;;;26.10;66.20;;;;;;4955862;29;20039;-68
2022/01/01 01:57:31;;;;;;;10.00;1.60;;;26.10;65.70;;;;;;4939144;29;20501;-68
2022/01/01 01:59:58;;;;;;;5.90;1.60;;;26.10;64.20;;;;;;4954349;28;20031;-68
2022/01/01 02:02:25;;;;;;;7.82;1.65;;;26.20;65.50;;;;;;4955607;28;20067;-68
2022/01/01 02:04:52;;;;;;;3.63;1.48;;;26.20;65.10;;;;;;4955608;29;20111;-69
2022/01/01 02:07:19;;;;;;;3.85;1.38;;;26.30;65.30;;;;;;4955521;29;20343;-69
2022/01/01 02:09:47;;;;;;;8.00;1.50;;;26.30;66.00;;;;;;4938523;29;20044;-68
2022/01/01 02:12:15;;;;;;;3.35;1.25;;;26.30;66.30;;;;;;4955811;29;20122;-68
2022/01/01 02:17:19;;;;;;;6.78;1.92;;;26.40;65.10;;;;;;4955658;29;20027;-69
2022/01/01 02:20:00;;;;;;;3.97;2.00;;;26.40;65.50;;;;;;4955532;29;20050;-69
2022/01/01 02:22:49;;;;;;;7.20;1.60;;;26.40;65.10;;;;;;4955606;29;20039;-68
2022/01/01 02:25:18;;;;;;;3.92;1.30;;;26.40;64.60;;;;;;4955753;28;20039;-69
2022/01/01 02:27:45;;;;;;;5.57;1.50;;;26.40;64.30;;;;;;4955466;29;20032;-68
2022/01/01 02:30:13;;;;;;;4.35;1.20;;;26.40;63.40;;;;;;4955305;29;20106;-68
2022/01/01 02:32:40;;;;;;;4.95;1.27;;;26.40;62.40;;;;;;4955566;29;20090;-68
2022/01/01 02:35:10;;;;;;;7.60;1.35;;;26.40;62.30;;;;;;4955560;29;20119;-69
2022/01/01 02:37:37;;;;;;;5.03;1.20;;;26.30;62.30;;;;;;4955514;29;20395;-69
2022/01/01 02:40:06;;;;;;;7.35;2.00;;;26.30;62.80;;;;;;4955122;29;20494;-68
2022/01/01 02:42:33;;;;;;;6.88;1.63;;;26.20;64.10;;;;;;4955287;29;20403;-68
2022/01/01 02:45:06;;;;;;;7.50;1.50;;;26.20;64.20;;;;;;4937895;29;20039;-69
2022/01/01 02:47:33;;;;;;;6.43;1.70;;;26.20;64.20;;;;;;4938797;29;20043;-69
2022/01/01 02:50:01;;;;;;;8.32;1.58;;;26.30;65.80;;;;;;4955152;29;20027;-69
2022/01/01 02:52:28;;;;;;;6.95;1.50;;;26.30;64.60;;;;;;4937978;29;20051;-68
2022/01/01 02:54:55;;;;;;;5.38;1.50;;;26.30;64.60;;;;;;4953617;29;20035;-69
2022/01/01 02:57:22;;;;;;;9.38;1.88;;;26.30;63.30;;;;;;4954941;29;20039;-69
2022/01/01 02:59:50;;;;;;;5.97;1.95;;;26.30;64.80;;;;;;4955000;29;20038;-68
2022/01/01 03:02:17;;;;;;;7.72;2.50;;;26.20;65.10;;;;;;4954859;28;20051;-69
2022/01/01 03:04:44;;;;;;;5.28;2.03;;;26.10;66.00;;;;;;4954873;29;20038;-69
2022/01/01 03:07:11;;;;;;;8.02;1.80;;;26.00;66.40;;;;;;4937628;29;20030;-69
2022/01/01 03:09:38;;;;;;;7.05;1.52;;;26.00;66.40;;;;;;4953445;29;20035;-68
2022/01/01 03:12:07;;;;;;;7.40;1.80;;;26.00;66.30;;;;;;4953672;28;20143;-69
2022/01/01 03:14:35;;;;;;;6.68;1.50;;;26.00;67.90;;;;;;4921494;29;20047;-68
2022/01/01 03:17:02;;;;;;;7.88;1.88;;;26.00;67.90;;;;;;4954562;29;20110;-69
2022/01/01 03:19:30;;;;;;;12.55;1.67;;;26.10;67.00;;;;;;4954551;28;20047;-68
2022/01/01 03:21:57;;;;;;;5.00;1.40;;;26.10;67.20;;;;;;4954435;29;20174;-68
2022/01/01 03:24:24;;;;;;;8.00;1.75;;;26.20;67.00;;;;;;4954393;29;20031;-69
2022/01/01 03:26:51;;;;;;;5.68;1.50;;;26.30;66.50;;;;;;4953881;29;20035;-69
2022/01/01 03:29:18;;;;;;;4.53;1.25;;;26.30;65.80;;;;;;4954209;29;20045;-68
2022/01/01 03:31:45;;;;;;;6.10;1.55;;;26.20;65.00;;;;;;4954331;29;20062;-68
2022/01/01 03:34:13;;;;;;;4.78;1.77;;;26.10;65.00;;;;;;4954095;29;20047;-68
2022/01/01 03:36:40;;;;;;;5.82;1.75;;;26.10;65.40;;;;;;4954005;29;20458;-69
2022/01/01 03:39:07;;;;;;;4.78;1.40;;;26.00;66.60;;;;;;4936813;29;20122;-68
2022/01/01 03:41:34;;;;;;;6.15;1.73;;;26.00;66.60;;;;;;4937138;29;20045;-69
2022/01/01 03:44:01;;;;;;;5.97;1.42;;;26.10;66.80;;;;;;4954043;29;20118;-68
2022/01/01 03:46:29;;;;;;;7.55;1.70;;;26.10;66.70;;;;;;4954306;29;20039;-69
2022/01/01 03:48:56;;;;;;;5.78;1.40;;;26.00;66.10;;;;;;4969283;28;20462;-68
2022/01/01 03:51:23;;;;;;;7.80;1.23;;;26.00;66.90;;;;;;4972550;28;20536;-69
2022/01/01 03:53:50;;;;;;;5.32;1.40;;;26.00;66.00;;;;;;4972259;28;20124;-69
2022/01/01 03:56:17;;;;;;;5.50;1.25;;;26.00;66.30;;;;;;4972312;28;20035;-69
2022/01/01 03:58:44;;;;;;;5.85;1.67;;;26.00;66.20;;;;;;4972023;28;20042;-68
2022/01/01 04:01:12;;;;;;;9.30;1.40;;;26.00;66.30;;;;;;4972302;28;20035;-68
2022/01/01 04:03:43;;;;;;;4.47;2.40;;;25.90;66.80;;;;;;4971781;28;20054;-69
2022/01/01 04:06:10;;;;;;;7.63;1.58;;;25.90;66.10;;;;;;4955442;28;20039;-69
2022/01/01 04:08:38;;;;;;;5.97;1.60;;;26.00;67.30;;;;;;4971511;28;20114;-68
2022/01/01 04:11:05;;;;;;;6.22;2.47;;;26.00;65.50;;;;;;4954648;28;20039;-68
2022/01/01 04:13:32;;;;;;;11.77;1.67;;;26.00;66.20;;;;;;4972060;28;20451;-68
2022/01/01 04:15:59;;;;;;;21.00;2.30;;;26.00;65.70;;;;;;4971996;28;20496;-69
2022/01/01 04:18:37;;;;;;;5.90;1.33;;;26.00;66.10;;;;;;4972784;28;20393;-69
2022/01/01 04:21:06;;;;;;;7.75;1.52;;;26.00;66.30;;;;;;4972397;28;20118;-68
2022/01/01 04:23:34;;;;;;;5.32;1.40;;;26.00;66.90;;;;;;4955275;28;20030;-68
2022/01/01 04:26:01;;;;;;;4.45;1.40;;;26.00;67.70;;;;;;4972470;28;20046;-69
2022/01/01 04:28:28;;;;;;;5.07;1.40;;;26.00;67.60;;;;;;4972380;28;20038;-69
2022/01/01 04:30:55;;;;;;;7.65;1.77;;;26.00;67.90;;;;;;4972153;28;20034;-69
2022/01/01 04:33:22;;;;;;;8.63;2.05;;;26.00;68.10;;;;;;4970836;28;20051;-69
2022/01/01 04:35:50;;;;;;;7.03;1.70;;;26.00;68.30;;;;;;4972314;28;20046;-69
2022/01/01 04:38:36;;;;;;;8.90;1.60;;;26.00;69.00;;;;;;4972678;28;20031;-69
2022/01/01 04:41:07;;;;;;;12.43;2.28;;;26.10;69.50;;;;;;4972642;28;20053;-68
2022/01/01 04:43:35;;;;;;;10.50;2.13;;;26.10;68.90;;;;;;4972235;28;20101;-68
2022/01/01 05:38:41;;;;;;;8.57;2.10;;;26.30;68.90;;;;;;4992137;28;20133;-68
2022/01/01 05:41:08;;;;;;;7.50;1.88;;;26.20;69.30;;;;;;4994002;28;20034;-67
2022/01/01 05:43:35;;;;;;;7.35;1.75;;;26.30;69.50;;;;;;4994581;28;20370;-68
2022/01/01 05:46:03;;;;;;;9.18;2.05;;;26.20;69.70;;;;;;4977065;28;20065;-68
2022/01/01 05:48:30;;;;;;;6.13;1.80;;;26.20;69.10;;;;;;4993886;28;20030;-68
2022/01/01 05:50:57;;;;;;;8.13;2.22;;;26.20;69.20;;;;;;4976444;28;20035;-68
2022/01/01 05:53:24;;;;;;;10.23;2.17;;;26.10;69.90;;;;;;4994292;28;20046;-68
2022/01/01 05:55:51;;;;;;;8.18;1.88;;;26.10;69.60;;;;;;4994096;28;20125;-68
2022/01/01 05:58:19;;;;;;;9.43;2.33;;;26.20;69.70;;;;;;4994036;28;20401;-68
2022/01/01 06:00:46;;;;;;;10.02;2.22;;;26.10;69.50;;;;;;4959871;28;20118;-68
2022/01/01 06:03:15;;;;;;;10.60;2.15;;;26.10;69.10;;;;;;4994486;28;20026;-68
2022/01/01 06:05:42;;;;;;;11.20;2.37;;;26.00;67.90;;;;;;4994203;28;20035;-68
2022/01/01 06:08:09;;;;;;;9.50;3.05;;;26.00;68.30;;;;;;4993828;28;20042;-68
2022/01/01 06:10:38;;;;;;;13.43;2.53;;;25.90;68.80;;;;;;4976942;28;20038;-68
2022/01/01 06:13:08;;;;;;;8.25;1.90;;;26.00;68.80;;;;;;4994407;28;20427;-68
2022/01/01 06:15:35;;;;;;;10.65;2.53;;;25.90;69.30;;;;;;4994263;28;20503;-68
2022/01/01 06:18:02;;;;;;;8.50;2.42;;;25.90;69.20;;;;;;4994114;28;20044;-68
2022/01/01 06:20:30;;;;;;;6.78;1.90;;;25.80;69.30;;;;;;4976106;28;20026;-68
2022/01/01 06:22:57;;;;;;;8.85;2.38;;;25.80;69.20;;;;;;4993246;28;20135;-67
2022/01/01 06:25:24;;;;;;;9.18;2.00;;;25.80;69.90;;;;;;4984818;28;20042;-68
2022/01/01 06:27:51;;;;;;;7.82;1.85;;;25.80;70.30;;;;;;4993042;28;20038;-68
2022/01/01 06:30:18;;;;;;;12.40;2.53;;;25.70;70.10;;;;;;4976075;28;20027;-69
2022/01/01 06:32:49;;;;;;;10.15;2.25;;;25.60;70.20;;;;;;4976789;28;20117;-68
2022/01/01 06:35:16;;;;;;;8.60;1.90;;;25.60;70.30;;;;;;4992438;28;20034;-68
2022/01/01 06:37:43;;;;;;;7.55;2.03;;;25.50;70.20;;;;;;4988722;28;20559;-69
2022/01/01 06:40:11;;;;;;;10.70;2.60;;;25.50;70.30;;;;;;5013104;28;20118;-69
2022/01/01 06:42:38;;;;;;;9.60;2.15;;;25.50;70.20;;;;;;4995425;28;20158;-67
2022/01/01 06:45:05;;;;;;;10.98;1.85;;;25.40;70.80;;;;;;5012847;28;20486;-67
2022/01/01 06:47:32;;;;;;;9.77;2.42;;;25.40;71.10;;;;;;5013409;28;20441;-69
2022/01/01 06:49:59;;;;;;;10.25;2.17;;;25.40;71.00;;;;;;5013206;28;20038;-67
2022/01/01 06:52:27;;;;;;;12.82;3.25;;;25.40;71.40;;;;;;5012280;28;20049;-67
2022/01/01 06:54:54;;;;;;;9.13;1.90;;;25.40;71.60;;;;;;5013154;28;20558;-67
2022/01/01 06:57:21;;;;;;;10.50;2.05;;;25.40;71.40;;;;;;4994451;28;20050;-67
2022/01/01 06:59:48;;;;;;;9.32;2.00;;;25.40;71.20;;;;;;4995380;28;20041;-67
2022/01/01 07:02:15;;;;;;;10.05;2.33;;;25.30;71.20;;;;;;5012856;28;20101;-67
2022/01/01 07:04:42;;;;;;;13.18;2.50;;;25.30;71.30;;;;;;5012617;28;20073;-67
2022/01/01 07:07:09;;;;;;;7.93;1.70;;;25.30;71.20;;;;;;5012576;28;20500;-69
2022/01/01 07:09:37;;;;;;;10.15;2.35;;;25.30;71.50;;;;;;4994906;28;20038;-67
2022/01/01 07:12:04;;;;;;;15.48;2.92;;;25.30;71.50;;;;;;5011818;28;20504;-67
2022/01/01 07:14:31;;;;;;;17.48;7.00;;;25.20;71.50;;;;;;5011910;28;20436;-69
2022/01/01 07:16:58;;;;;;;11.88;2.65;;;25.20;71.50;;;;;;5012888;28;20030;-69
2022/01/01 07:19:25;;;;;;;9.57;2.47;;;25.20;71.40;;;;;;5013098;28;20038;-69
2022/01/01 07:21:55;;;;;;;12.48;2.80;;;25.20;71.60;;;;;;5013252;28;20538;-68
2022/01/01 07:24:23;;;;;;;10.10;3.47;;;25.30;71.40;;;;;;5012792;28;20038;-68
2022/01/01 07:26:50;;;;;;;16.85;4.75;;;25.20;71.80;;;;;;4994764;28;20437;-69
2022/01/01 07:29:17;;;;;;;11.02;2.53;;;25.20;71.40;;;;;;5011395;28;20064;-68
2022/01/01 07:31:44;;;;;;;10.27;2.33;;;25.10;71.30;;;;;;5007563;28;20048;-68
2022/01/01 07:34:11;;;;;;;15.48;2.72;;;25.10;71.40;;;;;;5011947;28;20046;-69
2022/01/01 07:36:38;;;;;;;12.10;2.28;;;25.10;71.20;;;;;;5011963;28;20386;-69
2022/01/01 07:39:06;;;;;;;11.57;2.45;;;25.10;71.40;;;;;;5012516;28;20116;-69
2022/01/01 07:41:33;;;;;;;9.07;2.10;;;25.10;71.60;;;;;;5012169;28;20089;-68
2022/01/01 07:44:00;;;;;;;13.93;2.70;;;25.20;71.70;;;;;;5012703;28;20026;-68
2022/01/01 07:46:27;;;;;;;11.18;2.60;;;25.10;71.80;;;;;;4995285;28;20042;-68
2022/01/01 07:48:54;;;;;;;11.52;2.38;;;25.00;71.80;;;;;;5012367;28;20105;-68
2022/01/01 07:51:21;;;;;;;10.07;2.88;;;25.10;72.20;;;;;;5012336;28;20037;-68
2022/01/01 07:53:48;;;;;;;12.43;2.35;;;25.00;72.30;;;;;;5012097;28;20515;-68
2022/01/01 07:56:16;;;;;;;12.13;2.50;;;25.00;72.30;;;;;;5012271;28;20042;-68
2022/01/01 07:58:43;;;;;;;14.80;3.05;;;25.00;72.50;;;;;;5011975;28;20528;-68
2022/01/01 08:01:10;;;;;;;14.63;2.75;;;25.00;72.50;;;;;;5012267;28;20046;-68
2022/01/01 08:03:37;;;;;;;11.48;3.25;;;25.00;72.70;;;;;;5011953;28;20045;-68
2022/01/01 08:06:04;;;;;;;8.30;2.85;;;24.90;72.50;;;;;;5012284;28;20270;-68
2022/01/01 08:08:31;;;;;;;16.15;3.05;;;25.00;72.40;;;;;;5012306;28;20400;-69
2022/01/01 08:10:59;;;;;;;11.18;2.22;;;25.00;72.30;;;;;;5012130;28;20109;-69
2022/01/01 08:13:26;;;;;;;10.02;2.63;;;25.00;72.30;;;;;;5012134;28;20412;-69
2022/01/01 08:15:54;;;;;;;9.80;2.47;;;25.00;72.50;;;;;;4994677;28;20176;-69
2022/01/01 08:18:21;;;;;;;7.40;1.95;;;25.00;72.40;;;;;;4978647;28;20040;-68
2022/01/01 08:20:49;;;;;;;13.98;3.17;;;25.00;72.40;;;;;;5012020;28;20120;-68
2022/01/01 08:23:16;;;;;;;9.07;2.35;;;25.00;72.20;;;;;;5012007;28;20030;-68
2022/01/01 08:25:43;;;;;;;4.90;1.90;;;25.00;72.20;;;;;;5012180;28;20076;-68
2022/01/01 08:28:10;;;;;;;13.48;2.63;;;25.00;72.10;;;;;;5011904;28;20088;-68
2022/01/01 08:30:37;;;;;;;14.05;2.90;;;25.00;72.30;;;;;;5011624;28;20041;-68
2022/01/01 08:33:05;;;;;;;11.02;2.20;;;24.90;72.60;;;;;;5011995;28;20052;-69
2022/01/01 08:35:33;;;;;;;9.32;2.28;;;24.90;72.60;;;;;;5011860;28;20162;-68
2022/01/01 08:38:00;;;;;;;13.52;2.45;;;24.90;72.70;;;;;;4994911;28;20404;-68
2022/01/01 08:40:28;;;;;;;14.57;3.10;;;24.90;72.90;;;;;;5011805;28;20033;-68
2022/01/01 08:42:55;;;;;;;12.13;2.45;;;24.80;72.90;;;;;;5011968;28;20038;-69
2022/01/01 08:45:22;;;;;;;8.52;3.20;;;24.90;72.80;;;;;;5011927;28;20045;-68
2022/01/01 08:47:50;;;;;;;9.30;2.40;;;24.80;72.70;;;;;;5011843;28;20034;-69
2022/01/01 08:50:17;;;;;;;11.40;2.38;;;24.80;73.10;;;;;;4994477;28;20034;-68
2022/01/01 08:52:44;;;;;;;9.43;2.53;;;24.80;72.80;;;;;;5011959;28;20084;-68
2022/01/01 08:55:11;;;;;;;10.52;2.15;;;24.80;72.50;;;;;;4994389;28;20049;-68
2022/01/01 08:57:39;;;;;;;12.57;2.70;;;24.80;72.70;;;;;;4978037;28;20046;-68
2022/01/01 09:00:08;;;;;;;11.02;2.35;;;24.80;72.80;;;;;;5011865;28;20536;-68
2022/01/01 09:02:35;;;;;;;10.55;2.42;;;24.80;73.10;;;;;;5011842;28;20030;-68
2022/01/01 09:05:03;;;;;;;9.77;2.40;;;24.80;73.20;;;;;;5011466;28;20026;-68
2022/01/01 09:07:30;;;;;;;14.60;3.08;;;24.70;73.30;;;;;;4993934;28;20125;-68
2022/01/01 09:09:58;;;;;;;12.43;2.67;;;24.70;73.50;;;;;;4994022;28;20030;-68
2022/01/01 09:12:26;;;;;;;14.70;3.10;;;24.70;73.80;;;;;;5015514;28;20034;-68
2022/01/01 09:14:54;;;;;;;10.77;2.65;;;24.70;73.80;;;;;;5015532;28;20032;-69
2022/01/01 09:17:21;;;;;;;13.85;2.33;;;24.70;74.50;;;;;;5015646;28;20053;-68
2022/01/01 09:19:48;;;;;;;12.45;2.55;;;24.70;74.50;;;;;;5015581;28;20069;-69
2022/01/01 09:22:16;;;;;;;18.40;3.53;;;24.70;74.60;;;;;;5015633;28;20416;-68
2022/01/01 09:24:43;;;;;;;12.20;2.72;;;24.70;74.90;;;;;;5015501;28;20492;-68
2022/01/01 09:27:10;;;;;;;13.65;3.10;;;24.60;75.20;;;;;;4997719;28;20061;-69
2022/01/01 09:29:37;;;;;;;17.05;3.63;;;24.50;75.40;;;;;;5014914;28;20041;-69
2022/01/01 09:32:05;;;;;;;20.05;3.08;;;24.60;75.40;;;;;;5014604;28;20060;-68
2022/01/01 09:34:33;;;;;;;17.00;3.78;;;24.50;75.40;;;;;;5014693;28;20062;-68
2022/01/01 09:37:00;;;;;;;16.17;3.25;;;24.50;75.50;;;;;;5014611;28;20046;-68
2022/01/01 09:39:27;;;;;;;15.02;3.50;;;24.50;75.40;;;;;;4997423;28;20083;-68
2022/01/01 09:41:54;;;;;;;15.27;3.45;;;24.50;75.00;;;;;;5014690;28;20034;-68
2022/01/01 09:44:21;;;;;;;16.27;3.35;;;24.40;74.90;;;;;;5014846;28;20443;-69
2022/01/01 09:46:50;;;;;;;16.67;3.33;;;24.40;74.50;;;;;;5014614;28;20088;-68
2022/01/01 09:49:17;;;;;;;12.10;2.70;;;24.40;74.60;;;;;;5015010;28;20034;-68
2022/01/01 09:51:45;;;;;;;19.05;3.10;;;24.30;74.80;;;;;;5014367;28;20634;-69
2022/01/01 09:54:12;;;;;;;19.80;2.85;;;24.40;74.90;;;;;;5014611;28;20408;-69
2022/01/01 09:56:39;;;;;;;13.43;3.22;;;24.40;74.60;;;;;;5014435;28;20101;-69
2022/01/01 09:59:07;;;;;;;13.35;3.03;;;24.30;74.40;;;;;;4996881;28;20172;-67
2022/01/01 10:01:34;;;;;;;13.82;3.13;;;24.30;74.50;;;;;;5014615;28;20033;-67
2022/01/01 10:04:01;;;;;;;24.05;3.70;;;24.40;74.40;;;;;;5014287;28;20038;-67
2022/01/01 10:06:30;;;;;;;12.30;2.60;;;24.30;74.50;;;;;;4996819;28;20518;-67
2022/01/01 10:09:06;;;;;;;13.32;3.10;;;24.30;74.60;;;;;;4996447;28;20042;-67
2022/01/01 10:11:33;;;;;;;14.02;2.80;;;24.30;74.40;;;;;;5014290;28;20107;-67
2022/01/01 10:14:05;;;;;;;11.02;2.70;;;24.30;74.30;;;;;;5014231;28;20097;-67
2022/01/01 10:16:34;;;;;;;14.98;3.25;;;24.30;74.40;;;;;;5014378;28;20057;-67
2022/01/01 10:19:02;;;;;;;12.38;2.63;;;24.30;74.30;;;;;;5014159;28;20519;-67
2022/01/01 10:21:34;;;;;;;14.25;3.60;;;24.30;74.40;;;;;;5013815;28;20404;-67
2022/01/01 10:24:01;;;;;;;13.00;3.03;;;24.30;74.30;;;;;;4997234;28;20033;-67
2022/01/01 10:29:27;;;;;;;10.35;2.60;;;24.30;73.90;;;;;;5013674;28;20061;-67
2022/01/01 10:31:54;;;;;;;10.52;2.28;;;24.30;73.80;;;;;;5013768;28;20121;-67
2022/01/01 10:34:23;;;;;;;8.93;2.28;;;24.30;74.10;;;;;;5013906;28;20042;-67
2022/01/01 10:36:52;;;;;;;9.73;2.38;;;24.30;74.30;;;;;;5013261;28;20465;-67
2022/01/01 10:39:21;;;;;;;12.13;2.58;;;24.30;74.50;;;;;;5013793;28;20044;-67
2022/01/01 10:41:54;;;;;;;15.77;3.30;;;24.30;74.70;;;;;;4996380;28;20029;-67
2022/01/01 10:44:39;;;;;;;10.27;2.38;;;24.30;74.80;;;;;;5014276;28;20277;-67
2022/01/01 10:47:28;;;;;;;10.77;2.60;;;24.30;74.90;;;;;;5013284;28;20117;-67
2022/01/01 10:52:42;;;;;;;9.77;2.30;;;24.20;75.20;;;;;;4984182;28;20129;-67
2022/01/01 10:55:10;;;;;;;13.15;2.78;;;24.30;75.40;;;;;;5013721;28;20038;-67
2022/01/01 10:57:41;;;;;;;13.10;2.90;;;24.30;75.60;;;;;;4996142;28;20404;-67
2022/01/01 11:00:14;;;;;;;10.98;2.85;;;24.30;75.60;;;;;;5013273;28;20041;-67
2022/01/01 11:03:01;;;;;;;12.38;2.67;;;24.20;75.90;;;;;;5013395;28;20030;-67
2022/01/01 11:05:31;;;;;;;12.95;2.88;;;24.20;76.10;;;;;;5013339;28;20026;-67
2022/01/01 11:07:59;;;;;;;12.27;2.60;;;24.20;75.90;;;;;;4995725;28;20428;-68
2022/01/01 11:10:26;;;;;;;12.93;2.53;;;24.20;76.00;;;;;;5013206;28;20084;-68
2022/01/01 11:12:54;;;;;;;11.25;2.90;;;24.20;76.10;;;;;;4996109;28;20054;-67
2022/01/01 11:15:21;;;;;;;12.13;2.45;;;24.20;76.10;;;;;;5013229;28;20030;-68
2022/01/01 11:17:49;;;;;;;11.40;3.10;;;24.20;76.20;;;;;;5013399;28;20081;-68
2022/01/01 11:20:17;;;;;;;17.02;3.05;;;24.20;76.40;;;;;;4995743;28;20030;-67
2022/01/01 11:22:44;;;;;;;11.25;2.35;;;24.20;76.40;;;;;;5013049;28;20034;-68
2022/01/01 11:25:11;;;;;;;15.63;3.17;;;24.20;76.60;;;;;;4979557;28;20033;-67
2022/01/01 11:27:39;;;;;;;13.65;3.10;;;24.20;76.80;;;;;;5012902;28;20113;-67
2022/01/01 11:30:08;;;;;;;16.50;2.65;;;24.20;77.10;;;;;;5013070;28;20030;-67
2022/01/01 11:32:43;;;;;;;12.82;2.42;;;24.20;77.20;;;;;;4994861;28;20041;-67
2022/01/01 11:35:12;;;;;;;13.73;2.38;;;24.10;77.40;;;;;;4995246;28;20487;-67
2022/01/01 11:38:05;;;;;;;13.23;3.17;;;24.20;77.50;;;;;;4995663;28;20042;-67
2022/01/01 11:40:40;;;;;;;10.88;2.38;;;24.10;77.80;;;;;;5012989;28;20484;-67
2022/01/01 11:43:27;;;;;;;12.15;2.83;;;24.10;78.00;;;;;;5012598;28;20431;-68
2022/01/01 11:45:59;;;;;;;23.40;3.60;;;24.10;78.00;;;;;;5012561;28;20510;-67
2022/01/01 11:48:36;;;;;;;11.02;2.65;;;24.10;78.20;;;;;;4995851;28;20070;-67
2022/01/01 11:51:38;;;;;;;17.70;3.38;;;24.00;78.40;;;;;;4995372;28;20054;-68
2022/01/01 11:54:15;;;;;;;13.25;2.63;;;24.10;78.40;;;;;;5012456;28;20046;-67
2022/01/01 11:56:51;;;;;;;11.70;2.45;;;24.00;78.40;;;;;;4994847;28;20117;-67
2022/01/01 11:59:24;;;;;;;15.93;2.58;;;24.10;78.40;;;;;;5012393;28;20037;-67
2022/01/01 12:01:53;;;;;;;11.90;2.97;;;24.00;78.60;;;;;;5012292;28;20034;-67
2022/01/01 12:04:33;;;;;;;12.18;2.25;;;24.00;78.80;;;;;;4979033;28;20044;-67
2022/01/01 12:07:17;;;;;;;13.57;2.35;;;24.00;78.90;;;;;;5012745;28;20033;-67
2022/01/01 12:10:05;;;;;;;10.48;2.20;;;24.00;79.10;;;;;;5012326;28;20045;-67
2022/01/01 12:12:44;;;;;;;10.50;2.88;;;24.00;79.20;;;;;;5012377;28;20081;-67
2022/01/01 12:15:43;;;;;;;11.97;2.63;;;23.90;79.30;;;;;;5012491;28;20062;-67
2022/01/01 12:18:23;;;;;;;11.43;2.25;;;23.90;79.40;;;;;;5012243;28;20037;-68
2022/01/01 12:21:01;;;;;;;12.77;2.42;;;23.90;79.50;;;;;;5012152;28;20042;-67
2022/01/01 12:23:39;;;;;;;13.88;2.17;;;23.90;79.60;;;;;;5012207;28;20033;-68
2022/01/01 12:26:10;;;;;;;9.45;2.22;;;23.90;79.60;;;;;;5012130;28;20073;-67
2022/01/01 12:28:37;;;;;;;10.52;2.45;;;23.90;79.60;;;;;;5012165;28;20101;-67
2022/01/01 12:31:15;;;;;;;6.45;2.08;;;23.90;79.50;;;;;;4994641;28;20044;-68
2022/01/01 12:33:50;;;;;;;14.48;2.10;;;23.90;79.60;;;;;;5011845;28;20052;-67
2022/01/01 12:36:21;;;;;;;10.27;2.20;;;23.90;79.70;;;;;;4995211;28;20046;-67
2022/01/01 12:38:53;;;;;;;6.20;1.92;;;23.90;79.60;;;;;;5012013;28;20033;-67
2022/01/01 12:41:30;;;;;;;12.32;2.53;;;23.90;79.70;;;;;;5012120;28;20045;-67
2022/01/01 12:43:59;;;;;;;10.50;2.00;;;23.90;79.80;;;;;;5011910;28;20034;-67
2022/01/01 12:46:28;;;;;;;11.00;2.10;;;23.90;79.60;;;;;;5016112;28;20485;-67
2022/01/01 12:49:00;;;;;;;9.70;2.42;;;23.80;79.50;;;;;;5015799;28;20480;-67
2022/01/01 12:51:29;;;;;;;8.57;2.40;;;23.80;79.60;;;;;;5015972;28;20038;-67
2022/01/01 12:54:03;;;;;;;8.43;2.38;;;23.80;79.60;;;;;;5015834;28;20049;-67
2022/01/01 12:56:31;;;;;;;12.80;2.55;;;23.80;79.50;;;;;;5015645;28;20045;-67
2022/01/01 12:59:00;;;;;;;11.02;2.42;;;23.80;79.40;;;;;;4998609;28;20042;-67
2022/01/01 13:01:31;;;;;;;8.32;1.83;;;23.80;79.50;;;;;;5015566;28;20038;-67
2022/01/01 13:04:06;;;;;;;12.05;2.25;;;23.80;79.50;;;;;;5015900;28;20034;-67
2022/01/01 13:06:37;;;;;;;11.40;2.13;;;23.80;79.40;;;;;;5015470;28;20495;-67
2022/01/01 13:09:17;;;;;;;9.40;2.38;;;23.80;78.70;;;;;;5015631;28;20488;-67
2022/01/01 13:11:57;;;;;;;7.95;1.73;;;23.80;78.60;;;;;;4999737;28;20038;-67
2022/01/01 13:14:24;;;;;;;;;;;23.70;78.80;;;;;;4999810;28;20133;-67
2022/01/01 13:16:52;;;;;;;9.43;2.30;;;23.70;78.70;;;;;;5015466;28;20388;-67
2022/01/01 13:19:19;;;;;;;10.00;2.40;;;23.70;78.60;;;;;;5015531;28;20498;-67
2022/01/01 13:21:46;;;;;;;9.07;2.25;;;23.60;78.80;;;;;;5015248;28;20046;-67
2022/01/01 13:24:13;;;;;;;9.57;2.17;;;23.60;78.70;;;;;;5015545;28;20052;-67
2022/01/01 13:26:42;;;;;;;10.82;2.03;;;23.60;78.70;;;;;;5015565;28;20578;-67
2022/01/01 13:29:09;;;;;;;10.25;2.42;;;23.60;78.70;;;;;;5015328;28;20044;-67
2022/01/01 13:31:36;;;;;;;10.73;2.28;;;23.60;78.40;;;;;;4997891;28;20066;-67
2022/01/01 13:34:04;;;;;;;6.95;1.73;;;23.60;78.40;;;;;;4997925;28;20038;-67
2022/01/01 13:36:42;;;;;;;9.45;1.90;;;23.50;78.50;;;;;;4997610;28;20425;-67
2022/01/01 13:39:24;;;;;;;10.73;2.10;;;23.60;78.10;;;;;;5014896;28;20041;-67
2022/01/01 13:41:55;;;;;;;9.13;2.28;;;23.60;78.30;;;;;;4998464;28;20471;-67
2022/01/01 13:44:27;;;;;;;9.00;1.88;;;23.60;78.40;;;;;;5015142;28;20133;-67
2022/01/01 13:47:04;;;;;;;7.75;1.90;;;23.60;78.10;;;;;;5015530;28;20053;-67
2022/01/01 13:49:47;;;;;;;9.82;2.28;;;23.60;77.90;;;;;;5014766;28;20042;-67
2022/01/01 13:52:25;;;;;;;6.97;1.92;;;23.60;77.90;;;;;;5014960;28;20034;-67
2022/01/01 13:54:57;;;;;;;7.68;1.80;;;23.60;77.90;;;;;;4997965;28;20504;-68